Time;durP1;ratioP1;P1;durP2;ratioP2;P2;SDS_P1;SDS_P2;PMS_P1;PMS_P2;Temp;Humidity;BMP_temperature;BMP_pressure;BME280_temperature;BME280_humidity;BME280_pressure;Samples;Min_cycle;Max_cycle;Signal;HPM_P1;HPM_P2
2023/03/15 00:01:17;;;;;;;5.55;1.02;;;11.00;53.10;;;;;;4996286;28;20054;-81
2023/03/15 00:03:43;;;;;;;1.45;0.70;;;11.00;53.10;;;;;;4995315;28;20062;-78
2023/03/15 00:06:09;;;;;;;6.07;1.25;;;11.00;53.20;;;;;;4996255;28;20030;-78
2023/03/15 00:08:36;;;;;;;2.55;0.80;;;11.00;53.30;;;;;;5012131;28;20467;-83
2023/03/15 00:11:02;;;;;;;3.15;1.02;;;11.00;53.30;;;;;;5012282;28;20107;-82
2023/03/15 00:13:28;;;;;;;2.63;1.10;;;10.90;53.20;;;;;;4996841;28;20029;-82
2023/03/15 00:15:58;;;;;;;1.98;1.13;;;10.90;53.30;;;;;;5011516;28;20074;-82
2023/03/15 00:18:24;;;;;;;5.13;1.20;;;10.90;53.60;;;;;;4995463;28;20027;-81
2023/03/15 00:20:50;;;;;;;2.42;0.90;;;10.90;53.80;;;;;;4996501;28;20030;-82
2023/03/15 00:23:16;;;;;;;4.25;0.90;;;10.90;53.80;;;;;;4996956;28;20026;-82
2023/03/15 00:25:47;;;;;;;3.42;0.80;;;10.90;53.70;;;;;;4996791;28;20027;-81
2023/03/15 00:28:13;;;;;;;1.98;0.80;;;10.90;53.70;;;;;;4996019;28;20053;-82
2023/03/15 00:30:39;;;;;;;2.08;0.77;;;10.90;53.90;;;;;;4996448;28;20073;-81
2023/03/15 00:33:05;;;;;;;2.95;0.98;;;11.00;53.80;;;;;;4994937;28;20058;-83
2023/03/15 00:35:35;;;;;;;2.20;0.93;;;11.00;53.70;;;;;;4996644;28;20387;-83
2023/03/15 00:38:00;;;;;;;5.93;1.00;;;11.00;53.80;;;;;;4993398;28;20026;-83
2023/03/15 00:40:26;;;;;;;2.63;0.98;;;11.00;53.80;;;;;;4995235;28;20101;-82
2023/03/15 00:42:52;;;;;;;2.00;1.08;;;11.00;54.20;;;;;;4996239;28;20113;-83
2023/03/15 00:45:20;;;;;;;6.90;1.58;;;11.00;54.40;;;;;;4996299;28;20023;-83
2023/03/15 00:47:53;;;;;;;2.30;1.10;;;11.00;54.40;;;;;;4995031;28;20064;-83
2023/03/15 00:50:20;;;;;;;11.65;1.42;;;11.00;54.00;;;;;;4995269;28;20019;-82
2023/03/15 00:52:46;;;;;;;3.80;1.48;;;11.00;53.90;;;;;;4996420;28;20110;-82
2023/03/15 00:55:17;;;;;;;2.92;0.98;;;11.00;54.00;;;;;;4994888;28;20495;-84
2023/03/15 00:57:44;;;;;;;8.00;1.83;;;11.00;53.70;;;;;;4990339;28;20046;-82
2023/03/15 01:00:13;;;;;;;2.30;1.17;;;11.00;54.10;;;;;;4995984;28;20023;-83
2023/03/15 01:02:39;;;;;;;3.88;0.90;;;11.10;54.10;;;;;;4996369;28;20054;-83
2023/03/15 01:05:07;;;;;;;4.70;0.95;;;11.10;54.00;;;;;;4996270;28;20490;-84
2023/03/15 01:07:33;;;;;;;3.47;1.40;;;11.10;53.90;;;;;;4994860;28;20432;-83
2023/03/15 01:10:04;;;;;;;4.30;1.08;;;11.10;53.90;;;;;;4995967;28;20023;-82
2023/03/15 01:12:32;;;;;;;2.15;1.13;;;11.10;53.90;;;;;;4995632;28;20027;-82
2023/03/15 01:14:58;;;;;;;3.33;1.10;;;11.10;53.60;;;;;;4992022;28;20031;-82
2023/03/15 01:17:25;;;;;;;1.92;1.00;;;11.10;53.30;;;;;;5003522;28;20010;-82
2023/03/15 01:19:50;;;;;;;3.85;1.35;;;11.20;53.30;;;;;;5018165;28;20018;-81
2023/03/15 01:22:17;;;;;;;3.45;1.13;;;11.30;53.10;;;;;;5005627;28;20022;-83
2023/03/15 01:24:43;;;;;;;1.88;0.90;;;11.30;52.80;;;;;;4995944;28;20109;-83
2023/03/15 01:27:09;;;;;;;2.28;1.17;;;11.30;52.50;;;;;;4994065;28;20072;-82
2023/03/15 01:29:35;;;;;;;3.17;1.00;;;11.30;52.50;;;;;;4993899;28;20360;-83
2023/03/15 01:32:00;;;;;;;5.03;1.30;;;11.40;52.60;;;;;;4995523;28;20018;-84
2023/03/15 01:34:26;;;;;;;3.25;0.80;;;11.40;52.60;;;;;;4995250;28;20037;-82
2023/03/15 01:36:52;;;;;;;3.08;0.75;;;11.40;52.80;;;;;;4995166;28;20026;-83
2023/03/15 01:39:18;;;;;;;2.90;0.80;;;11.40;52.90;;;;;;4995150;28;20076;-83
2023/03/15 01:41:44;;;;;;;1.95;0.80;;;11.40;52.90;;;;;;4993729;28;20037;-83
2023/03/15 01:44:14;;;;;;;4.22;0.95;;;11.40;52.70;;;;;;4993004;28;20034;-81
2023/03/15 01:46:40;;;;;;;3.22;1.23;;;11.40;52.90;;;;;;4993921;28;20026;-83
2023/03/15 01:49:11;;;;;;;3.28;1.02;;;11.40;53.00;;;;;;4993573;28;20072;-83
2023/03/15 01:51:56;;;;;;;2.38;0.90;;;11.40;53.30;;;;;;4993845;28;20065;-82
2023/03/15 01:54:30;;;;;;;1.98;1.02;;;11.30;53.30;;;;;;4993814;28;20030;-82
2023/03/15 01:57:02;;;;;;;4.15;1.23;;;11.30;53.40;;;;;;4994854;28;20022;-82
2023/03/15 01:59:37;;;;;;;1.33;0.90;;;11.30;53.70;;;;;;4993717;28;20113;-83
2023/03/15 02:02:05;;;;;;;1.40;1.00;;;11.20;53.70;;;;;;4993688;28;20030;-82
2023/03/15 02:04:54;;;;;;;1.75;0.68;;;11.30;53.70;;;;;;4994376;28;20522;-83
2023/03/15 02:07:23;;;;;;;1.98;0.88;;;11.30;53.80;;;;;;4993212;28;20022;-81
2023/03/15 02:10:04;;;;;;;2.75;1.00;;;11.30;53.90;;;;;;4993192;28;20030;-82
2023/03/15 02:12:32;;;;;;;2.25;1.00;;;11.20;53.90;;;;;;4993235;28;20022;-83
2023/03/15 02:15:01;;;;;;;4.18;1.15;;;11.20;53.90;;;;;;4994075;28;20077;-83
2023/03/15 02:17:35;;;;;;;6.57;1.83;;;11.20;54.10;;;;;;4992829;28;20054;-83
2023/03/15 02:20:01;;;;;;;;;;;11.20;54.20;;;;;;4993658;28;20022;-83
2023/03/15 02:22:51;;;;;;;5.50;1.75;;;11.20;54.00;;;;;;4994306;28;19913;-83
2023/03/15 02:25:52;;;;;;;4.10;0.93;;;11.20;54.10;;;;;;4993743;28;20052;-83
2023/03/15 02:28:21;;;;;;;2.72;1.10;;;11.20;54.10;;;;;;4994348;28;20056;-83
2023/03/15 02:30:48;;;;;;;2.20;0.98;;;11.10;54.10;;;;;;4994287;28;20105;-83
2023/03/15 02:33:37;;;;;;;3.42;1.10;;;11.10;54.40;;;;;;4994306;28;20483;-82
2023/03/15 02:36:11;;;;;;;3.05;1.40;;;11.10;54.30;;;;;;4989096;28;20037;-82
2023/03/15 02:38:36;;;;;;;3.17;1.00;;;11.10;54.40;;;;;;4974885;28;20436;-81
2023/03/15 02:41:03;;;;;;;3.33;1.30;;;11.10;54.30;;;;;;4985069;28;20105;-83
2023/03/15 02:43:31;;;;;;;2.90;1.17;;;11.10;54.40;;;;;;4986911;28;20476;-81
2023/03/15 02:45:58;;;;;;;1.70;1.05;;;11.10;54.40;;;;;;4973682;28;20069;-83
2023/03/15 02:48:25;;;;;;;2.45;0.93;;;11.10;54.40;;;;;;4989867;28;20054;-82
2023/03/15 02:50:54;;;;;;;3.65;1.10;;;11.10;54.40;;;;;;4994473;28;20018;-81
2023/03/15 02:53:19;;;;;;;3.55;1.52;;;11.10;54.50;;;;;;4994168;28;20030;-83
2023/03/15 02:55:45;;;;;;;6.78;1.23;;;11.10;54.60;;;;;;4994004;28;20065;-82
2023/03/15 02:58:11;;;;;;;4.22;1.30;;;11.10;54.70;;;;;;4993908;28;20491;-81
2023/03/15 03:00:38;;;;;;;2.58;1.00;;;11.10;54.80;;;;;;5008990;28;20077;-83
2023/03/15 03:03:04;;;;;;;5.45;1.05;;;11.10;54.80;;;;;;4994109;28;20078;-82
2023/03/15 03:05:30;;;;;;;1.08;0.80;;;11.10;54.90;;;;;;4993929;28;20124;-84
2023/03/15 03:07:56;;;;;;;2.42;1.00;;;11.10;54.80;;;;;;4994246;28;20037;-83
2023/03/15 03:10:22;;;;;;;2.97;0.90;;;11.10;54.90;;;;;;4993969;28;20448;-82
2023/03/15 03:12:52;;;;;;;2.03;0.90;;;11.10;54.90;;;;;;4994040;28;20019;-82
2023/03/15 03:15:18;;;;;;;6.05;1.10;;;11.10;54.90;;;;;;5008705;28;20042;-81
2023/03/15 03:17:44;;;;;;;2.17;0.93;;;11.10;55.10;;;;;;4993342;28;20025;-82
2023/03/15 03:20:12;;;;;;;2.25;1.10;;;11.10;55.10;;;;;;4993301;28;20105;-82
2023/03/15 03:22:39;;;;;;;4.63;1.52;;;11.10;55.10;;;;;;4992533;28;20018;-82
2023/03/15 03:25:08;;;;;;;1.48;1.00;;;11.00;55.10;;;;;;4993596;28;20065;-83
2023/03/15 03:27:37;;;;;;;4.38;1.58;;;11.00;55.20;;;;;;4992585;28;20027;-83
2023/03/15 03:30:08;;;;;;;3.60;1.10;;;11.00;55.30;;;;;;4974541;28;20476;-83
2023/03/15 03:32:34;;;;;;;2.83;1.08;;;11.00;55.20;;;;;;4974276;28;20417;-82
2023/03/15 03:35:00;;;;;;;2.92;1.25;;;11.00;55.20;;;;;;4973769;28;20027;-82
2023/03/15 03:37:26;;;;;;;3.33;1.27;;;11.00;55.30;;;;;;4977828;28;20031;-83
2023/03/15 03:39:52;;;;;;;3.20;0.98;;;11.00;55.40;;;;;;4976566;28;20031;-81
2023/03/15 03:42:18;;;;;;;2.80;1.38;;;10.90;55.40;;;;;;4977967;28;20027;-82
2023/03/15 03:44:44;;;;;;;1.63;1.20;;;10.90;55.40;;;;;;4977646;28;20090;-83
2023/03/15 03:47:10;;;;;;;2.35;1.30;;;11.00;55.40;;;;;;4976429;28;20030;-83
2023/03/15 03:49:35;;;;;;;2.47;1.20;;;10.90;55.40;;;;;;4983256;28;20026;-83
2023/03/15 03:52:01;;;;;;;1.90;1.20;;;11.00;55.50;;;;;;4996636;28;20109;-82
2023/03/15 03:54:27;;;;;;;4.88;1.25;;;10.90;55.30;;;;;;4997042;28;20034;-81
2023/03/15 03:56:53;;;;;;;2.67;1.15;;;10.90;55.40;;;;;;4997038;28;20026;-82
2023/03/15 03:59:19;;;;;;;4.65;1.65;;;10.90;55.40;;;;;;4996694;28;20026;-83
2023/03/15 04:01:45;;;;;;;2.42;1.05;;;10.90;55.60;;;;;;4996786;28;20377;-83
2023/03/15 04:04:14;;;;;;;5.05;1.10;;;10.90;55.60;;;;;;4996808;28;20054;-83
2023/03/15 04:06:44;;;;;;;1.60;1.00;;;10.90;55.60;;;;;;4996675;28;20077;-83
2023/03/15 04:09:14;;;;;;;1.25;0.93;;;10.90;55.60;;;;;;4995441;28;20029;-83
2023/03/15 04:11:41;;;;;;;7.90;1.58;;;10.90;55.70;;;;;;4996897;28;20033;-82
2023/03/15 04:14:11;;;;;;;1.83;1.10;;;10.90;55.70;;;;;;4996509;28;20027;-82
2023/03/15 04:16:37;;;;;;;2.70;1.30;;;10.90;55.70;;;;;;4994915;28;20046;-82
2023/03/15 04:19:03;;;;;;;3.38;1.58;;;10.90;55.80;;;;;;4995118;28;20027;-83
2023/03/15 04:21:32;;;;;;;7.32;1.67;;;10.90;55.80;;;;;;4995061;28;20027;-82
2023/03/15 04:23:59;;;;;;;5.15;1.27;;;10.80;56.00;;;;;;4996359;28;20034;-83
2023/03/15 04:26:27;;;;;;;1.92;1.10;;;10.80;56.10;;;;;;4996201;28;20027;-82
2023/03/15 04:28:53;;;;;;;6.95;1.38;;;10.80;56.20;;;;;;4996312;28;20023;-82
2023/03/15 04:31:20;;;;;;;5.93;1.55;;;10.70;56.10;;;;;;4996404;28;20022;-82
2023/03/15 04:33:46;;;;;;;2.30;1.50;;;10.70;56.20;;;;;;4996117;28;20475;-82
2023/03/15 04:36:17;;;;;;;4.05;1.70;;;10.70;56.30;;;;;;4996162;28;20101;-83
2023/03/15 04:38:47;;;;;;;5.38;1.60;;;10.70;56.20;;;;;;4994956;28;20414;-83
2023/03/15 04:41:17;;;;;;;2.38;1.48;;;10.70;56.20;;;;;;4995987;28;20436;-82
2023/03/15 04:43:43;;;;;;;4.65;2.20;;;10.70;56.10;;;;;;4993217;28;20026;-83
2023/03/15 04:46:10;;;;;;;5.40;1.85;;;10.80;56.20;;;;;;4975789;28;20054;-82
2023/03/15 04:48:36;;;;;;;3.17;1.67;;;10.70;56.20;;;;;;4994498;28;20069;-82
2023/03/15 04:51:02;;;;;;;3.78;1.30;;;10.70;56.10;;;;;;4995747;28;20022;-82
2023/03/15 04:53:28;;;;;;;2.90;1.45;;;10.70;56.10;;;;;;4996157;28;20023;-82
2023/03/15 04:55:54;;;;;;;3.40;1.30;;;10.70;56.10;;;;;;4995876;28;20105;-83
2023/03/15 04:58:20;;;;;;;4.22;1.65;;;10.70;56.10;;;;;;4994798;28;20034;-81
2023/03/15 05:00:46;;;;;;;2.75;1.27;;;10.70;56.10;;;;;;4992228;28;20038;-82
2023/03/15 05:03:11;;;;;;;3.65;1.25;;;10.60;56.10;;;;;;4977920;28;20066;-82
2023/03/15 05:05:37;;;;;;;2.42;1.10;;;10.60;56.70;;;;;;4976106;28;20034;-83
2023/03/15 05:08:03;;;;;;;4.90;1.58;;;10.60;56.20;;;;;;4975008;28;20036;-83
2023/03/15 05:10:30;;;;;;;4.40;1.52;;;10.50;56.30;;;;;;4976366;28;20357;-82
2023/03/15 05:12:56;;;;;;;3.22;1.60;;;10.50;56.30;;;;;;4976097;28;20061;-82
2023/03/15 05:15:22;;;;;;;3.92;1.58;;;10.60;56.30;;;;;;4975712;28;20436;-82
2023/03/15 05:17:47;;;;;;;6.53;1.50;;;10.50;56.20;;;;;;4987871;28;20105;-83
2023/03/15 05:20:15;;;;;;;4.38;1.75;;;10.50;56.40;;;;;;4989242;28;20416;-83
2023/03/15 05:22:41;;;;;;;2.83;1.60;;;10.50;56.60;;;;;;4994084;28;20027;-83
2023/03/15 05:25:09;;;;;;;4.88;1.80;;;10.50;56.80;;;;;;4991418;28;20455;-83
2023/03/15 05:27:35;;;;;;;9.02;2.58;;;10.50;57.00;;;;;;4974368;28;20027;-83
2023/03/15 05:30:02;;;;;;;8.55;3.20;;;10.50;57.50;;;;;;4974325;28;20073;-81
2023/03/15 05:32:33;;;;;;;4.50;1.80;;;10.40;57.70;;;;;;4974460;28;20026;-82
2023/03/15 05:35:02;;;;;;;6.18;1.67;;;10.40;57.90;;;;;;4974153;28;20030;-82
2023/03/15 05:37:28;;;;;;;3.10;1.83;;;10.30;58.10;;;;;;4977490;28;20030;-82
2023/03/15 05:39:54;;;;;;;4.55;2.00;;;10.30;58.20;;;;;;4974899;28;20027;-81
2023/03/15 05:42:24;;;;;;;2.42;1.70;;;10.20;58.40;;;;;;4977631;28;20030;-82
2023/03/15 05:44:54;;;;;;;5.47;1.40;;;10.20;58.70;;;;;;4975761;28;20026;-83
2023/03/15 05:47:21;;;;;;;3.65;1.75;;;10.10;58.90;;;;;;4977692;28;20073;-83
2023/03/15 05:49:46;;;;;;;1.67;1.23;;;10.10;59.00;;;;;;4975257;28;20098;-83
2023/03/15 05:52:12;;;;;;;2.03;0.98;;;10.00;58.80;;;;;;4990350;28;20057;-83
2023/03/15 05:54:38;;;;;;;2.90;1.10;;;10.00;58.60;;;;;;4987578;28;20089;-83
2023/03/15 05:57:04;;;;;;;2.70;1.10;;;10.00;58.80;;;;;;4993161;28;20030;-81
2023/03/15 05:59:30;;;;;;;2.05;1.15;;;10.00;58.90;;;;;;4993947;28;20068;-82
2023/03/15 06:01:56;;;;;;;1.95;1.17;;;10.00;59.00;;;;;;4994094;28;20065;-82
2023/03/15 06:04:22;;;;;;;1.35;1.00;;;10.00;58.80;;;;;;4993027;28;20471;-83
2023/03/15 06:06:48;;;;;;;2.63;1.20;;;9.90;58.30;;;;;;4992868;28;20105;-82
2023/03/15 06:09:14;;;;;;;4.82;1.58;;;10.00;58.20;;;;;;4993413;28;20118;-82
2023/03/15 06:11:40;;;;;;;5.55;1.25;;;9.90;57.80;;;;;;4993035;28;20113;-83
2023/03/15 06:14:06;;;;;;;4.75;1.55;;;9.90;57.60;;;;;;4983514;28;20031;-81
2023/03/15 06:16:31;;;;;;;3.10;1.45;;;9.90;57.30;;;;;;4977954;28;20039;-83
2023/03/15 06:18:57;;;;;;;4.03;1.50;;;9.90;57.00;;;;;;4992284;28;20034;-83
2023/03/15 06:21:23;;;;;;;1.77;1.20;;;9.80;56.90;;;;;;4994007;28;20029;-83
2023/03/15 06:23:49;;;;;;;2.70;1.30;;;9.80;57.30;;;;;;4993824;28;20073;-83
2023/03/15 06:26:17;;;;;;;5.18;1.70;;;9.70;57.50;;;;;;4995245;28;20392;-84
2023/03/15 06:28:43;;;;;;;3.72;1.65;;;9.70;57.70;;;;;;4993822;28;20439;-83
2023/03/15 06:31:11;;;;;;;3.25;1.63;;;9.70;57.70;;;;;;4988822;28;20029;-82
2023/03/15 06:33:38;;;;;;;7.25;2.13;;;9.70;57.70;;;;;;4992456;28;20053;-84
2023/03/15 06:36:05;;;;;;;12.40;2.28;;;9.60;57.70;;;;;;4994001;28;20030;-83
2023/03/15 06:38:31;;;;;;;6.50;2.28;;;9.50;56.90;;;;;;4993930;28;20030;-83
2023/03/15 06:41:01;;;;;;;4.43;2.10;;;9.30;56.50;;;;;;4993772;28;20029;-82
2023/03/15 06:43:27;;;;;;;5.93;1.88;;;9.30;57.10;;;;;;4993558;28;20030;-83
2023/03/15 06:45:54;;;;;;;3.13;1.60;;;9.20;57.30;;;;;;4993234;28;20022;-83
2023/03/15 06:48:21;;;;;;;7.38;3.33;;;9.20;57.60;;;;;;4991971;28;20061;-82
2023/03/15 06:50:46;;;;;;;5.75;2.47;;;9.20;57.90;;;;;;4993852;28;20019;-83
2023/03/15 06:53:13;;;;;;;7.18;3.05;;;9.30;57.90;;;;;;4993735;28;20022;-82
2023/03/15 06:55:38;;;;;;;8.77;5.10;;;9.30;57.90;;;;;;4994125;28;20050;-84
2023/03/15 06:58:04;;;;;;;12.32;2.83;;;9.30;58.00;;;;;;4992214;28;20053;-81
2023/03/15 07:00:30;;;;;;;8.98;2.75;;;9.30;57.90;;;;;;4992370;28;20563;-85
2023/03/15 07:02:56;;;;;;;4.28;2.13;;;9.40;57.90;;;;;;4992557;28;20022;-84
2023/03/15 07:05:22;;;;;;;8.60;2.42;;;9.30;57.80;;;;;;4992480;28;20495;-84
2023/03/15 07:07:48;;;;;;;8.57;2.38;;;9.40;57.90;;;;;;4993505;28;20025;-83
2023/03/15 07:10:13;;;;;;;4.20;1.70;;;9.40;57.90;;;;;;4994810;28;20027;-82
2023/03/15 07:12:39;;;;;;;5.10;1.95;;;9.30;57.70;;;;;;4997889;28;20061;-83
2023/03/15 07:15:05;;;;;;;4.30;1.90;;;9.30;57.70;;;;;;4997717;28;20057;-82
2023/03/15 07:17:31;;;;;;;10.57;4.75;;;9.30;57.70;;;;;;4996206;28;20034;-84
2023/03/15 07:19:57;;;;;;;6.75;3.17;;;9.30;57.70;;;;;;4997269;28;20026;-82
2023/03/15 07:22:23;;;;;;;7.80;3.45;;;9.20;57.70;;;;;;5001836;28;20026;-83
2023/03/15 07:24:50;;;;;;;4.22;1.95;;;9.30;57.80;;;;;;5002005;28;20026;-85
2023/03/15 07:27:15;;;;;;;3.25;1.70;;;9.20;57.90;;;;;;5002366;28;20026;-84
2023/03/15 07:29:41;;;;;;;3.22;1.58;;;9.20;57.80;;;;;;4999495;28;20444;-83
2023/03/15 07:32:07;;;;;;;4.85;2.08;;;9.20;57.70;;;;;;4997820;28;20450;-83
2023/03/15 07:34:33;;;;;;;7.20;2.22;;;9.20;57.60;;;;;;4996348;28;20411;-83
2023/03/15 07:36:59;;;;;;;10.95;2.60;;;9.20;57.70;;;;;;4997356;28;20022;-83
2023/03/15 07:39:25;;;;;;;8.52;2.90;;;9.20;57.70;;;;;;4997499;28;20105;-85
2023/03/15 07:41:51;;;;;;;6.60;2.22;;;9.20;57.80;;;;;;4997998;28;20053;-82
2023/03/15 07:44:17;;;;;;;9.27;2.30;;;9.20;57.80;;;;;;4997659;28;20106;-84
2023/03/15 07:46:43;;;;;;;6.40;2.38;;;9.20;57.70;;;;;;4995407;28;20065;-83
2023/03/15 07:49:10;;;;;;;7.55;1.98;;;9.20;57.60;;;;;;4996716;28;20026;-82
2023/03/15 07:51:35;;;;;;;6.07;1.70;;;9.20;57.50;;;;;;4996273;28;20033;-83
2023/03/15 07:54:02;;;;;;;6.38;1.95;;;9.30;57.40;;;;;;4995811;28;20483;-82
2023/03/15 07:56:28;;;;;;;3.92;1.52;;;9.30;57.50;;;;;;4997073;28;20046;-82
2023/03/15 07:58:54;;;;;;;9.38;2.65;;;9.40;57.60;;;;;;4997064;28;20019;-85
2023/03/15 08:01:20;;;;;;;7.13;1.70;;;9.40;57.40;;;;;;4997258;28;20077;-84
2023/03/15 08:03:46;;;;;;;6.85;1.95;;;9.50;57.00;;;;;;4997356;28;20030;-84
2023/03/15 08:06:12;;;;;;;6.15;1.70;;;9.60;56.90;;;;;;4996893;28;20023;-82
2023/03/15 08:08:38;;;;;;;7.55;1.77;;;9.60;56.80;;;;;;4996823;28;20029;-84
2023/03/15 08:11:05;;;;;;;6.00;1.65;;;9.70;56.60;;;;;;4997002;28;20031;-84
2023/03/15 08:13:31;;;;;;;9.85;2.40;;;9.70;56.60;;;;;;4996678;28;20029;-82
2023/03/15 08:15:57;;;;;;;8.63;2.58;;;9.80;56.80;;;;;;4995011;28;20042;-84
2023/03/15 08:18:22;;;;;;;6.75;1.73;;;9.80;56.70;;;;;;4977337;28;20369;-82
2023/03/15 08:20:48;;;;;;;4.43;1.67;;;9.90;56.50;;;;;;4979674;28;20049;-84
2023/03/15 08:23:17;;;;;;;7.43;1.83;;;9.90;56.60;;;;;;4996454;28;20026;-85
2023/03/15 08:25:43;;;;;;;7.85;2.03;;;10.00;56.60;;;;;;4995877;28;20033;-83
2023/03/15 08:28:10;;;;;;;6.15;1.90;;;10.00;56.50;;;;;;4996718;28;20022;-86
2023/03/15 08:30:36;;;;;;;4.65;1.40;;;10.10;56.20;;;;;;4993119;28;20476;-84
2023/03/15 08:33:02;;;;;;;7.78;1.88;;;10.10;56.00;;;;;;4993929;28;20491;-85
2023/03/15 08:35:29;;;;;;;7.05;1.63;;;10.20;56.00;;;;;;4996662;28;20068;-83
2023/03/15 08:37:55;;;;;;;4.32;1.73;;;10.20;55.90;;;;;;4996859;28;20022;-83
2023/03/15 08:40:25;;;;;;;5.22;1.67;;;10.20;55.90;;;;;;4996725;28;20018;-83
2023/03/15 08:42:53;;;;;;;8.13;2.03;;;10.20;55.80;;;;;;4997096;28;20049;-85
2023/03/15 08:45:19;;;;;;;4.75;1.45;;;10.20;55.40;;;;;;4979611;28;20035;-84
2023/03/15 08:47:45;;;;;;;4.30;1.70;;;10.20;55.40;;;;;;4998227;28;20056;-81
2023/03/15 08:50:14;;;;;;;6.15;2.05;;;10.20;56.10;;;;;;5014528;28;20018;-81
2023/03/15 08:52:40;;;;;;;8.93;1.70;;;10.20;55.40;;;;;;5012240;28;20030;-80
2023/03/15 08:55:07;;;;;;;4.63;1.65;;;10.30;55.90;;;;;;5012880;28;20030;-80
2023/03/15 08:57:34;;;;;;;5.15;1.88;;;10.30;55.80;;;;;;5013534;28;20026;-80
2023/03/15 09:00:14;;;;;;;6.10;2.03;;;10.40;56.30;;;;;;5006100;28;20032;-83
2023/03/15 09:02:39;;;;;;;10.10;2.38;;;10.50;55.90;;;;;;4998807;28;20031;-83
2023/03/15 09:05:06;;;;;;;5.78;2.05;;;10.60;55.70;;;;;;4999968;28;20039;-83
2023/03/15 09:07:33;;;;;;;4.57;1.95;;;10.70;55.50;;;;;;5014499;28;20372;-83
2023/03/15 09:09:59;;;;;;;8.13;2.30;;;10.80;55.10;;;;;;4996024;28;20030;-82
2023/03/15 09:12:26;;;;;;;8.13;2.35;;;10.90;54.70;;;;;;4995668;28;20018;-84
2023/03/15 09:14:53;;;;;;;3.65;1.95;;;10.90;54.80;;;;;;4995455;28;20018;-82
2023/03/15 09:17:20;;;;;;;4.90;1.88;;;11.00;54.40;;;;;;4995496;28;20394;-84
2023/03/15 09:19:46;;;;;;;6.00;1.80;;;11.00;54.70;;;;;;5010676;28;20391;-83
2023/03/15 09:22:12;;;;;;;4.32;1.95;;;11.10;54.70;;;;;;4994324;28;20032;-84
2023/03/15 09:24:38;;;;;;;4.47;1.95;;;11.20;54.60;;;;;;4995367;28;20034;-84
2023/03/15 09:27:04;;;;;;;5.47;1.58;;;11.30;54.30;;;;;;4995148;28;20034;-85
2023/03/15 09:29:30;;;;;;;5.20;1.75;;;11.40;54.60;;;;;;4995424;28;20026;-83
2023/03/15 09:31:56;;;;;;;6.32;1.67;;;11.50;54.30;;;;;;4993931;28;20094;-83
2023/03/15 09:34:22;;;;;;;5.63;2.05;;;11.60;54.00;;;;;;4994635;28;20431;-83
2023/03/15 09:36:51;;;;;;;5.40;1.55;;;11.70;53.80;;;;;;5010251;28;20033;-85
2023/03/15 09:39:19;;;;;;;15.85;2.15;;;11.80;52.80;;;;;;4995272;28;20436;-84
2023/03/15 09:41:55;;;;;;;5.15;1.90;;;11.80;52.80;;;;;;4993634;28;20026;-83
2023/03/15 09:44:43;;;;;;;7.07;2.05;;;11.90;52.90;;;;;;4995186;28;20118;-83
2023/03/15 09:47:32;;;;;;;10.48;2.30;;;12.00;52.60;;;;;;5002898;28;20030;-83
2023/03/15 09:50:17;;;;;;;5.80;1.95;;;12.00;52.20;;;;;;4992116;28;20110;-82
2023/03/15 09:52:47;;;;;;;;;;;12.10;52.50;;;;;;4995219;28;20395;-83
2023/03/15 09:55:24;;;;;;;3.15;1.58;;;12.20;53.00;;;;;;4994652;28;19917;-83
2023/03/15 09:57:57;;;;;;;5.93;1.75;;;12.40;52.10;;;;;;4980362;28;20082;-84
2023/03/15 10:00:34;;;;;;;5.05;1.52;;;12.50;51.50;;;;;;4975576;28;20357;-83
2023/03/15 10:03:05;;;;;;;2.80;1.13;;;12.60;51.50;;;;;;4988416;28;20072;-84
2023/03/15 10:05:38;;;;;;;7.40;1.75;;;12.60;49.70;;;;;;4993001;28;20489;-83
2023/03/15 10:08:13;;;;;;;11.40;2.42;;;12.60;48.90;;;;;;4994635;28;20080;-83
2023/03/15 10:11:22;;;;;;;6.93;1.98;;;12.50;48.40;;;;;;4993158;28;20022;-83
2023/03/15 10:14:09;;;;;;;4.53;1.42;;;12.50;47.80;;;;;;4994260;28;20488;-86
2023/03/15 10:16:42;;;;;;;10.10;2.00;;;12.50;48.40;;;;;;4994426;28;20124;-88
2023/03/15 10:19:38;;;;;;;8.80;1.73;;;12.50;48.30;;;;;;4993761;28;20030;-86
2023/03/15 10:22:18;;;;;;;10.40;1.92;;;12.50;47.60;;;;;;4994557;28;20033;-87
2023/03/15 10:25:06;;;;;;;7.05;2.08;;;12.60;46.50;;;;;;4994864;28;20453;-86
2023/03/15 10:27:54;;;;;;;5.80;1.75;;;12.50;46.40;;;;;;4993138;28;20023;-86
2023/03/15 10:30:26;;;;;;;5.82;1.95;;;12.50;47.20;;;;;;4993286;28;20030;-86
2023/03/15 10:33:02;;;;;;;13.95;1.77;;;12.50;45.30;;;;;;4993887;28;20029;-85
2023/03/15 10:35:31;;;;;;;6.65;2.08;;;12.50;45.70;;;;;;4993792;28;20023;-87
2023/03/15 10:37:57;;;;;;;6.55;1.95;;;12.30;45.70;;;;;;4993501;28;20034;-86
2023/03/15 10:40:48;;;;;;;12.32;2.75;;;12.40;46.50;;;;;;4994532;28;20074;-86
2023/03/15 10:43:18;;;;;;;8.38;1.98;;;12.40;46.40;;;;;;4993488;28;20117;-86
2023/03/15 10:46:02;;;;;;;7.03;1.88;;;12.40;45.80;;;;;;4995474;28;20018;-87
2023/03/15 10:49:11;;;;;;;8.35;1.70;;;12.40;46.60;;;;;;4998632;28;20463;-90
2023/03/15 10:51:42;;;;;;;13.95;3.15;;;12.60;46.90;;;;;;4997029;28;20098;-87
2023/03/15 10:54:16;;;;;;;10.15;2.17;;;12.60;46.50;;;;;;4997171;28;20117;-86
2023/03/15 10:57:37;;;;;;;12.20;2.88;;;12.60;46.00;;;;;;4998206;28;20027;-83
2023/03/15 11:00:34;;;;;;;7.22;2.20;;;12.50;46.30;;;;;;4997271;28;20503;-88
2023/03/15 11:03:05;;;;;;;11.95;2.55;;;12.50;45.10;;;;;;4996672;28;20056;-87
2023/03/15 11:05:42;;;;;;;15.95;2.40;;;12.50;44.10;;;;;;4996946;28;20030;-88
2023/03/15 11:08:19;;;;;;;10.18;1.65;;;12.50;44.30;;;;;;4997342;28;20027;-84
2023/03/15 11:10:53;;;;;;;10.43;2.65;;;12.40;44.50;;;;;;4996705;28;20027;-86
2023/03/15 11:13:22;;;;;;;6.82;2.42;;;12.40;44.90;;;;;;4997580;28;20544;-86
2023/03/15 11:16:07;;;;;;;6.85;2.53;;;12.40;45.00;;;;;;4996233;28;20046;-84
2023/03/15 11:18:41;;;;;;;7.10;2.00;;;12.40;45.40;;;;;;4997609;28;20038;-86
2023/03/15 11:21:14;;;;;;;6.40;2.25;;;12.30;44.00;;;;;;4995331;28;20026;-86
2023/03/15 11:23:45;;;;;;;9.90;3.17;;;12.20;43.80;;;;;;4996597;28;20519;-84
2023/03/15 11:26:22;;;;;;;6.68;1.70;;;12.30;43.90;;;;;;4997091;28;20116;-85
2023/03/15 11:29:00;;;;;;;8.52;2.05;;;12.30;42.20;;;;;;4996150;28;20041;-83
2023/03/15 11:31:27;;;;;;;9.18;2.13;;;12.30;42.60;;;;;;4978076;28;20022;-84
2023/03/15 11:34:07;;;;;;;9.68;2.08;;;12.20;42.00;;;;;;4993648;28;20108;-84
2023/03/15 11:36:37;;;;;;;5.88;1.83;;;12.20;42.00;;;;;;4995634;28;20436;-85
2023/03/15 11:39:04;;;;;;;6.22;2.08;;;12.20;42.50;;;;;;4995457;28;20048;-82
2023/03/15 11:45:42;;;;;;;6.07;1.80;;;12.30;42.20;;;;;;4956928;29;20042;-90
2023/03/15 11:48:20;;;;;;;5.57;1.80;;;12.40;42.20;;;;;;4962847;28;20034;-86
2023/03/15 11:50:46;;;;;;;9.40;2.45;;;12.50;41.90;;;;;;4992343;28;20062;-84
2023/03/15 11:53:17;;;;;;;6.55;1.90;;;12.60;41.70;;;;;;4997770;28;20058;-86
2023/03/15 11:55:49;;;;;;;5.70;1.75;;;12.70;41.20;;;;;;4994977;28;20057;-91
2023/03/15 11:58:43;;;;;;;10.25;2.35;;;12.70;41.90;;;;;;4996546;28;20410;-90
2023/03/15 12:01:10;;;;;;;6.60;2.13;;;12.80;42.10;;;;;;4995979;28;20081;-86
2023/03/15 12:03:38;;;;;;;4.50;2.05;;;12.90;42.40;;;;;;4992928;28;20070;-90
2023/03/15 12:06:16;;;;;;;13.18;2.55;;;12.90;41.90;;;;;;4996287;28;20023;-91
2023/03/15 12:08:53;;;;;;;6.38;2.15;;;12.80;41.80;;;;;;4995637;28;20030;-89
2023/03/15 12:11:19;;;;;;;32.17;2.92;;;12.80;41.00;;;;;;4997143;28;20035;-91
2023/03/15 12:14:00;;;;;;;11.00;2.20;;;12.80;40.50;;;;;;4995434;28;20100;-89
2023/03/15 12:16:29;;;;;;;8.05;2.13;;;12.60;39.40;;;;;;4997640;28;20108;-88
2023/03/15 12:19:01;;;;;;;7.25;2.25;;;12.60;39.40;;;;;;4995820;28;20076;-84
2023/03/15 12:21:33;;;;;;;8.40;2.20;;;12.50;39.80;;;;;;4995627;28;20551;-90
2023/03/15 12:24:06;;;;;;;7.35;2.10;;;12.40;40.30;;;;;;4995080;28;20117;-86
2023/03/15 12:26:43;;;;;;;11.07;2.38;;;12.40;40.10;;;;;;4994826;28;20384;-90
2023/03/15 12:29:40;;;;;;;11.60;2.25;;;12.40;40.30;;;;;;4993749;28;20026;-93
2023/03/15 12:32:12;;;;;;;17.67;2.95;;;12.50;40.90;;;;;;4920423;29;20525;-88
2023/03/15 12:34:49;;;;;;;7.80;2.00;;;12.50;39.30;;;;;;4937981;29;20039;-88
2023/03/15 12:37:18;;;;;;;16.25;2.13;;;12.40;39.70;;;;;;4936509;29;20075;-90
2023/03/15 12:40:13;;;;;;;13.50;2.13;;;12.50;39.10;;;;;;4920138;29;20493;-87
2023/03/15 12:42:39;;;;;;;6.57;2.05;;;12.40;39.20;;;;;;4896121;29;20134;-87
2023/03/15 12:45:14;;;;;;;4.80;2.03;;;12.50;39.50;;;;;;4920702;29;20126;-90
2023/03/15 12:47:49;;;;;;;5.32;1.85;;;12.50;38.30;;;;;;4935855;29;20038;-92
2023/03/15 12:50:43;;;;;;;5.40;2.20;;;12.50;38.00;;;;;;4936486;29;20039;-85
2023/03/15 12:53:29;;;;;;;12.07;2.25;;;12.40;38.20;;;;;;4936161;29;20059;-88
2023/03/15 12:55:57;;;;;;;7.70;2.08;;;12.30;37.60;;;;;;4937740;29;20068;-88
2023/03/15 12:58:35;;;;;;;5.43;1.88;;;12.20;38.40;;;;;;4936827;29;20027;-88
2023/03/15 13:01:04;;;;;;;12.68;1.90;;;12.20;37.40;;;;;;4920477;29;20035;-91
2023/03/15 13:03:33;;;;;;;5.60;2.20;;;12.30;37.30;;;;;;4921986;29;20424;-90
2023/03/15 13:06:17;;;;;;;19.83;2.75;;;12.30;37.70;;;;;;4938928;29;20032;-88